sensor_id;sensor_type;location;lat;lon;timestamp;pressure;altitude;pressure_sealevel;temperature;humidity
70343;BME280;57767;42.068;24.752;2024-01-27T00:00:05;99393.78;;;4.79;48.38
70343;BME280;57767;42.068;24.752;2024-01-27T00:01:07;99384.88;;;4.72;49.02
70343;BME280;57767;42.068;24.752;2024-01-27T00:02:09;99406.19;;;4.85;48.71
70343;BME280;57767;42.068;24.752;2024-01-27T00:03:10;99390.50;;;4.85;47.64
70343;BME280;57767;42.068;24.752;2024-01-27T00:04:12;99392.44;;;4.83;48.52
70343;BME280;57767;42.068;24.752;2024-01-27T00:05:14;99399.31;;;4.84;47.62
70343;BME280;57767;42.068;24.752;2024-01-27T00:06:15;99389.19;;;4.81;48.29
70343;BME280;57767;42.068;24.752;2024-01-27T00:07:17;99406.72;;;4.88;47.90
70343;BME280;57767;42.068;24.752;2024-01-27T00:08:19;99400.81;;;4.86;48.12
70343;BME280;57767;42.068;24.752;2024-01-27T00:09:22;99406.88;;;4.87;47.62
70343;BME280;57767;42.068;24.752;2024-01-27T00:10:24;99399.84;;;4.87;47.66
70343;BME280;57767;42.068;24.752;2024-01-27T00:11:26;99402.47;;;4.87;47.88
70343;BME280;57767;42.068;24.752;2024-01-27T00:12:28;99396.72;;;4.84;47.47
70343;BME280;57767;42.068;24.752;2024-01-27T00:13:30;99373.44;;;4.64;47.53
70343;BME280;57767;42.068;24.752;2024-01-27T00:14:31;99403.59;;;4.85;47.73
70343;BME280;57767;42.068;24.752;2024-01-27T00:15:33;99411.28;;;4.86;47.83
70343;BME280;57767;42.068;24.752;2024-01-27T00:16:35;99387.72;;;4.78;47.00
70343;BME280;57767;42.068;24.752;2024-01-27T00:17:36;99397.06;;;4.81;47.59
70343;BME280;57767;42.068;24.752;2024-01-27T00:18:38;99402.59;;;4.86;47.45
70343;BME280;57767;42.068;24.752;2024-01-27T00:19:40;99408.50;;;4.88;47.07
70343;BME280;57767;42.068;24.752;2024-01-27T00:20:43;99409.47;;;4.87;46.65
70343;BME280;57767;42.068;24.752;2024-01-27T00:21:44;99391.00;;;4.80;47.03
70343;BME280;57767;42.068;24.752;2024-01-27T00:22:46;99413.13;;;4.94;46.75
70343;BME280;57767;42.068;24.752;2024-01-27T00:23:48;99394.44;;;4.81;47.08
70343;BME280;57767;42.068;24.752;2024-01-27T00:24:50;99406.41;;;4.91;46.50
70343;BME280;57767;42.068;24.752;2024-01-27T00:25:51;99415.22;;;4.90;46.97
70343;BME280;57767;42.068;24.752;2024-01-27T00:26:54;99403.28;;;4.88;46.47
70343;BME280;57767;42.068;24.752;2024-01-27T00:27:55;99397.69;;;4.83;46.83
70343;BME280;57767;42.068;24.752;2024-01-27T00:28:57;99412.47;;;4.92;47.08
70343;BME280;57767;42.068;24.752;2024-01-27T00:29:59;99417.84;;;4.90;47.57
70343;BME280;57767;42.068;24.752;2024-01-27T00:31:00;99410.66;;;4.92;47.18
70343;BME280;57767;42.068;24.752;2024-01-27T00:32:02;99415.75;;;4.94;46.67
70343;BME280;57767;42.068;24.752;2024-01-27T00:33:04;99406.25;;;4.93;46.34
70343;BME280;57767;42.068;24.752;2024-01-27T00:34:06;99407.56;;;4.97;46.89
70343;BME280;57767;42.068;24.752;2024-01-27T00:35:08;99394.16;;;4.92;45.72
70343;BME280;57767;42.068;24.752;2024-01-27T00:36:12;99410.38;;;5.03;45.61
70343;BME280;57767;42.068;24.752;2024-01-27T00:37:14;99396.25;;;4.96;45.82
70343;BME280;57767;42.068;24.752;2024-01-27T00:38:16;99395.81;;;5.01;46.10
70343;BME280;57767;42.068;24.752;2024-01-27T00:39:18;99396.31;;;5.04;46.12
70343;BME280;57767;42.068;24.752;2024-01-27T00:40:20;99389.91;;;5.07;45.27
70343;BME280;57767;42.068;24.752;2024-01-27T00:41:21;99394.53;;;5.13;45.57
70343;BME280;57767;42.068;24.752;2024-01-27T00:42:23;99386.00;;;5.11;45.07
70343;BME280;57767;42.068;24.752;2024-01-27T00:43:26;99391.59;;;5.16;45.73
70343;BME280;57767;42.068;24.752;2024-01-27T00:44:28;99387.03;;;5.18;45.45
70343;BME280;57767;42.068;24.752;2024-01-27T00:45:29;99386.69;;;5.21;44.76
70343;BME280;57767;42.068;24.752;2024-01-27T00:46:31;99389.66;;;5.26;44.73
70343;BME280;57767;42.068;24.752;2024-01-27T00:47:33;99383.44;;;5.27;45.24
70343;BME280;57767;42.068;24.752;2024-01-27T00:48:36;99388.50;;;5.29;44.84
70343;BME280;57767;42.068;24.752;2024-01-27T00:49:37;99386.06;;;5.27;44.38
70343;BME280;57767;42.068;24.752;2024-01-27T00:50:39;99376.41;;;5.28;44.63
70343;BME280;57767;42.068;24.752;2024-01-27T00:51:41;99372.66;;;5.30;44.93
70343;BME280;57767;42.068;24.752;2024-01-27T00:52:42;99381.31;;;5.31;44.43
70343;BME280;57767;42.068;24.752;2024-01-27T00:53:44;99379.69;;;5.30;44.46
70343;BME280;57767;42.068;24.752;2024-01-27T00:54:46;99365.75;;;5.21;44.96
70343;BME280;57767;42.068;24.752;2024-01-27T00:55:47;99377.38;;;5.27;44.92
70343;BME280;57767;42.068;24.752;2024-01-27T00:56:49;99380.16;;;5.25;44.56
70343;BME280;57767;42.068;24.752;2024-01-27T00:57:51;99376.41;;;5.28;45.03
70343;BME280;57767;42.068;24.752;2024-01-27T00:58:52;99382.78;;;5.25;45.12
70343;BME280;57767;42.068;24.752;2024-01-27T00:59:54;99342.47;;;5.02;45.28
70343;BME280;57767;42.068;24.752;2024-01-27T01:00:56;99373.44;;;5.23;44.84
70343;BME280;57767;42.068;24.752;2024-01-27T01:01:57;99367.22;;;5.16;45.02
70343;BME280;57767;42.068;24.752;2024-01-27T01:02:59;99379.19;;;5.26;45.11
70343;BME280;57767;42.068;24.752;2024-01-27T01:04:01;99366.09;;;5.26;45.20
70343;BME280;57767;42.068;24.752;2024-01-27T01:05:03;99370.97;;;5.21;45.44
70343;BME280;57767;42.068;24.752;2024-01-27T01:06:08;99369.16;;;5.22;44.71
70343;BME280;57767;42.068;24.752;2024-01-27T01:07:09;99362.97;;;5.23;45.79
70343;BME280;57767;42.068;24.752;2024-01-27T01:08:11;99372.28;;;5.25;45.63
70343;BME280;57767;42.068;24.752;2024-01-27T01:09:12;99351.66;;;5.22;44.71
70343;BME280;57767;42.068;24.752;2024-01-27T01:10:15;99367.41;;;5.30;44.73
70343;BME280;57767;42.068;24.752;2024-01-27T01:11:16;99358.06;;;5.28;45.34
70343;BME280;57767;42.068;24.752;2024-01-27T01:12:18;99358.72;;;5.30;44.63
70343;BME280;57767;42.068;24.752;2024-01-27T01:13:20;99370.03;;;5.30;45.04
70343;BME280;57767;42.068;24.752;2024-01-27T01:14:22;99364.13;;;5.28;45.54
70343;BME280;57767;42.068;24.752;2024-01-27T01:15:24;99362.19;;;5.30;44.69
70343;BME280;57767;42.068;24.752;2024-01-27T01:16:25;99359.56;;;5.30;45.04
70343;BME280;57767;42.068;24.752;2024-01-27T01:17:27;99349.25;;;5.29;45.25
70343;BME280;57767;42.068;24.752;2024-01-27T01:18:29;99346.63;;;5.29;45.28
70343;BME280;57767;42.068;24.752;2024-01-27T01:19:31;99346.13;;;5.33;44.99
70343;BME280;57767;42.068;24.752;2024-01-27T01:20:32;99345.97;;;5.35;45.34
70343;BME280;57767;42.068;24.752;2024-01-27T01:21:34;99341.53;;;5.35;44.60
70343;BME280;57767;42.068;24.752;2024-01-27T01:22:35;99345.13;;;5.34;45.66
70343;BME280;57767;42.068;24.752;2024-01-27T01:23:37;99329.28;;;5.28;45.23
70343;BME280;57767;42.068;24.752;2024-01-27T01:24:39;99336.97;;;5.29;45.59
70343;BME280;57767;42.068;24.752;2024-01-27T01:25:40;99337.44;;;5.25;45.15
70343;BME280;57767;42.068;24.752;2024-01-27T01:26:42;99335.66;;;5.25;45.22
70343;BME280;57767;42.068;24.752;2024-01-27T01:27:43;99328.44;;;5.27;45.97
70343;BME280;57767;42.068;24.752;2024-01-27T01:28:45;99321.38;;;5.20;45.55
70343;BME280;57767;42.068;24.752;2024-01-27T01:29:47;99330.06;;;5.20;45.59
70343;BME280;57767;42.068;24.752;2024-01-27T01:30:48;99322.22;;;5.20;46.02
70343;BME280;57767;42.068;24.752;2024-01-27T01:31:52;99314.53;;;5.19;45.42
70343;BME280;57767;42.068;24.752;2024-01-27T01:32:54;99327.63;;;5.19;45.67
70343;BME280;57767;42.068;24.752;2024-01-27T01:33:56;99317.31;;;5.17;45.53
70343;BME280;57767;42.068;24.752;2024-01-27T01:34:58;99315.38;;;5.19;44.92
70343;BME280;57767;42.068;24.752;2024-01-27T01:35:59;99324.19;;;5.18;45.65
70343;BME280;57767;42.068;24.752;2024-01-27T01:37:01;99333.03;;;5.17;45.11
70343;BME280;57767;42.068;24.752;2024-01-27T01:38:04;99317.78;;;5.04;45.64
70343;BME280;57767;42.068;24.752;2024-01-27T01:39:06;99324.47;;;5.07;44.88
70343;BME280;57767;42.068;24.752;2024-01-27T01:40:08;99328.25;;;5.04;45.90
70343;BME280;57767;42.068;24.752;2024-01-27T01:41:10;99328.09;;;5.06;45.80
70343;BME280;57767;42.068;24.752;2024-01-27T01:42:12;99327.28;;;5.06;45.20
70343;BME280;57767;42.068;24.752;2024-01-27T01:43:13;99340.38;;;5.06;45.01
70343;BME280;57767;42.068;24.752;2024-01-27T01:44:15;99341.50;;;5.03;46.00
70343;BME280;57767;42.068;24.752;2024-01-27T01:45:17;99333.66;;;5.03;45.62
70343;BME280;57767;42.068;24.752;2024-01-27T01:46:18;99332.53;;;5.06;45.99
70343;BME280;57767;42.068;24.752;2024-01-27T01:47:20;99331.84;;;5.03;45.42
70343;BME280;57767;42.068;24.752;2024-01-27T01:48:23;99325.81;;;5.03;44.97
70343;BME280;57767;42.068;24.752;2024-01-27T01:49:26;99323.03;;;5.04;45.97
70343;BME280;57767;42.068;24.752;2024-01-27T01:50:28;99322.53;;;5.01;45.07
70343;BME280;57767;42.068;24.752;2024-01-27T01:51:30;99330.53;;;4.99;45.95
70343;BME280;57767;42.068;24.752;2024-01-27T01:52:32;99324.47;;;4.99;46.06
70343;BME280;57767;42.068;24.752;2024-01-27T01:53:33;99324.31;;;5.00;45.94
70343;BME280;57767;42.068;24.752;2024-01-27T01:54:35;99329.25;;;5.03;45.24
70343;BME280;57767;42.068;24.752;2024-01-27T01:55:37;99333.34;;;5.06;45.05
70343;BME280;57767;42.068;24.752;2024-01-27T01:56:39;99327.25;;;4.97;45.29
70343;BME280;57767;42.068;24.752;2024-01-27T01:57:40;99318.25;;;4.92;45.38
70343;BME280;57767;42.068;24.752;2024-01-27T01:58:44;99326.94;;;5.00;45.63
70343;BME280;57767;42.068;24.752;2024-01-27T01:59:46;99335.44;;;5.02;44.96
70343;BME280;57767;42.068;24.752;2024-01-27T02:00:49;99333.50;;;5.04;45.40
70343;BME280;57767;42.068;24.752;2024-01-27T02:01:50;99322.22;;;5.04;45.37
70343;BME280;57767;42.068;24.752;2024-01-27T02:02:52;99312.06;;;5.01;45.20
70343;BME280;57767;42.068;24.752;2024-01-27T02:03:54;99303.53;;;4.99;45.20
70343;BME280;57767;42.068;24.752;2024-01-27T02:04:56;99300.25;;;4.97;44.83
70343;BME280;57767;42.068;24.752;2024-01-27T02:05:57;99297.31;;;4.92;44.95
70343;BME280;57767;42.068;24.752;2024-01-27T02:06:59;99292.75;;;4.94;45.56
70343;BME280;57767;42.068;24.752;2024-01-27T02:08:01;99295.38;;;4.94;45.43
70343;BME280;57767;42.068;24.752;2024-01-27T02:09:05;99296.16;;;4.94;45.00
70343;BME280;57767;42.068;24.752;2024-01-27T02:10:13;99243.47;;;4.65;44.85
70343;BME280;57767;42.068;24.752;2024-01-27T02:11:17;99281.13;;;4.88;45.12
70343;BME280;57767;42.068;24.752;2024-01-27T02:12:19;99280.47;;;4.86;45.31
70343;BME280;57767;42.068;24.752;2024-01-27T02:13:22;99286.00;;;4.83;45.50
70343;BME280;57767;42.068;24.752;2024-01-27T02:14:24;99294.53;;;4.85;46.10
70343;BME280;57767;42.068;24.752;2024-01-27T02:15:27;99296.31;;;4.85;46.71
70343;BME280;57767;42.068;24.752;2024-01-27T02:16:29;99296.63;;;4.82;46.21
70343;BME280;57767;42.068;24.752;2024-01-27T02:17:31;99299.25;;;4.74;47.02
70343;BME280;57767;42.068;24.752;2024-01-27T02:18:32;99311.50;;;4.73;47.40
70343;BME280;57767;42.068;24.752;2024-01-27T02:19:34;99308.38;;;4.69;46.83
70343;BME280;57767;42.068;24.752;2024-01-27T02:20:36;99312.31;;;4.65;46.95
70343;BME280;57767;42.068;24.752;2024-01-27T02:21:39;99314.38;;;4.54;47.14
70343;BME280;57767;42.068;24.752;2024-01-27T02:22:40;99300.78;;;4.42;47.13
70343;BME280;57767;42.068;24.752;2024-01-27T02:23:42;99291.31;;;4.41;47.03
70343;BME280;57767;42.068;24.752;2024-01-27T02:24:44;99312.53;;;4.46;47.42
70343;BME280;57767;42.068;24.752;2024-01-27T02:25:45;99310.91;;;4.45;47.98
70343;BME280;57767;42.068;24.752;2024-01-27T02:26:47;99289.00;;;4.38;47.42
70343;BME280;57767;42.068;24.752;2024-01-27T02:27:48;99304.03;;;4.44;47.66
70343;BME280;57767;42.068;24.752;2024-01-27T02:28:50;99306.00;;;4.42;47.78
70343;BME280;57767;42.068;24.752;2024-01-27T02:29:52;99299.28;;;4.40;48.11
70343;BME280;57767;42.068;24.752;2024-01-27T02:30:53;99311.25;;;4.42;48.04
70343;BME280;57767;42.068;24.752;2024-01-27T02:31:55;99287.97;;;4.31;48.46
70343;BME280;57767;42.068;24.752;2024-01-27T02:32:57;99306.47;;;4.38;48.24
70343;BME280;57767;42.068;24.752;2024-01-27T02:33:59;99306.94;;;4.33;48.02
70343;BME280;57767;42.068;24.752;2024-01-27T02:35:01;99306.75;;;4.26;48.64
70343;BME280;57767;42.068;24.752;2024-01-27T02:36:03;99298.38;;;4.15;47.29
70343;BME280;57767;42.068;24.752;2024-01-27T02:37:05;99309.78;;;4.14;47.59
70343;BME280;57767;42.068;24.752;2024-01-27T02:38:07;99309.94;;;4.12;47.65
70343;BME280;57767;42.068;24.752;2024-01-27T02:39:08;99302.06;;;4.04;46.92
70343;BME280;57767;42.068;24.752;2024-01-27T02:40:10;99305.16;;;4.00;46.47
70343;BME280;57767;42.068;24.752;2024-01-27T02:41:12;99304.84;;;4.03;46.61
70343;BME280;57767;42.068;24.752;2024-01-27T02:42:13;99297.59;;;3.96;46.26
70343;BME280;57767;42.068;24.752;2024-01-27T02:43:15;99301.56;;;4.01;46.01
70343;BME280;57767;42.068;24.752;2024-01-27T02:44:17;99311.03;;;4.02;46.30
70343;BME280;57767;42.068;24.752;2024-01-27T02:45:18;99307.59;;;4.01;46.02
70343;BME280;57767;42.068;24.752;2024-01-27T02:46:20;99311.56;;;4.05;46.09
70343;BME280;57767;42.068;24.752;2024-01-27T02:47:22;99314.00;;;4.07;45.99
70343;BME280;57767;42.068;24.752;2024-01-27T02:48:23;99308.94;;;4.05;46.24
70343;BME280;57767;42.068;24.752;2024-01-27T02:49:25;99305.31;;;4.06;45.95
70343;BME280;57767;42.068;24.752;2024-01-27T02:50:27;99304.19;;;4.09;45.31
70343;BME280;57767;42.068;24.752;2024-01-27T02:51:28;99297.97;;;4.02;45.82
70343;BME280;57767;42.068;24.752;2024-01-27T02:52:32;99302.91;;;4.05;46.19
70343;BME280;57767;42.068;24.752;2024-01-27T02:53:34;99297.16;;;4.01;46.16
70343;BME280;57767;42.068;24.752;2024-01-27T02:54:35;99299.94;;;4.08;46.36
70343;BME280;57767;42.068;24.752;2024-01-27T02:55:37;99289.66;;;4.06;45.60
70343;BME280;57767;42.068;24.752;2024-01-27T02:56:38;99299.94;;;4.08;45.92
70343;BME280;57767;42.068;24.752;2024-01-27T02:57:40;99290.81;;;4.04;46.07
70343;BME280;57767;42.068;24.752;2024-01-27T02:58:42;99294.88;;;4.06;46.43
70343;BME280;57767;42.068;24.752;2024-01-27T02:59:46;99292.25;;;4.06;46.25
70343;BME280;57767;42.068;24.752;2024-01-27T03:00:48;99296.47;;;3.99;46.19
70343;BME280;57767;42.068;24.752;2024-01-27T03:01:50;99292.91;;;4.00;46.24
70343;BME280;57767;42.068;24.752;2024-01-27T03:02:51;99296.34;;;4.01;46.42
70343;BME280;57767;42.068;24.752;2024-01-27T03:03:53;99298.56;;;3.95;46.93
70343;BME280;57767;42.068;24.752;2024-01-27T03:04:55;99292.53;;;3.95;46.21
70343;BME280;57767;42.068;24.752;2024-01-27T03:05:56;99292.69;;;3.93;46.89
70343;BME280;57767;42.068;24.752;2024-01-27T03:06:58;99290.06;;;3.93;46.31
70343;BME280;57767;42.068;24.752;2024-01-27T03:08:00;99288.75;;;3.89;46.84
70343;BME280;57767;42.068;24.752;2024-01-27T03:09:02;99290.06;;;3.93;46.17
70343;BME280;57767;42.068;24.752;2024-01-27T03:10:04;99286.75;;;3.83;46.89
70343;BME280;57767;42.068;24.752;2024-01-27T03:11:05;99283.16;;;3.84;46.73
70343;BME280;57767;42.068;24.752;2024-01-27T03:12:07;99284.66;;;3.87;47.40
70343;BME280;57767;42.068;24.752;2024-01-27T03:13:09;99285.78;;;3.84;47.45
70343;BME280;57767;42.068;24.752;2024-01-27T03:14:11;99281.53;;;3.83;47.26
70343;BME280;57767;42.068;24.752;2024-01-27T03:15:12;99284.78;;;3.77;47.74
70343;BME280;57767;42.068;24.752;2024-01-27T03:16:14;99286.09;;;3.81;47.32
70343;BME280;57767;42.068;24.752;2024-01-27T03:17:16;99284.00;;;3.85;48.03
70343;BME280;57767;42.068;24.752;2024-01-27T03:18:18;99279.22;;;3.80;48.15
70343;BME280;57767;42.068;24.752;2024-01-27T03:19:19;99280.03;;;3.81;48.12
70343;BME280;57767;42.068;24.752;2024-01-27T03:20:21;99266.94;;;3.73;48.42
70343;BME280;57767;42.068;24.752;2024-01-27T03:21:23;99279.03;;;3.74;48.10
70343;BME280;57767;42.068;24.752;2024-01-27T03:22:25;99268.72;;;3.72;48.60
70343;BME280;57767;42.068;24.752;2024-01-27T03:23:26;99271.19;;;3.74;48.62
70343;BME280;57767;42.068;24.752;2024-01-27T03:24:28;99271.16;;;3.66;48.31
70343;BME280;57767;42.068;24.752;2024-01-27T03:25:30;99275.06;;;3.70;47.77
70343;BME280;57767;42.068;24.752;2024-01-27T03:26:31;99270.00;;;3.68;48.04
70343;BME280;57767;42.068;24.752;2024-01-27T03:27:33;99274.41;;;3.68;48.12
70343;BME280;57767;42.068;24.752;2024-01-27T03:28:34;99275.91;;;3.70;48.59
70343;BME280;57767;42.068;24.752;2024-01-27T03:29:36;99276.88;;;3.69;49.18
70343;BME280;57767;42.068;24.752;2024-01-27T03:30:38;99259.38;;;3.62;48.24
70343;BME280;57767;42.068;24.752;2024-01-27T03:31:39;99271.00;;;3.67;48.79
70343;BME280;57767;42.068;24.752;2024-01-27T03:32:41;99263.91;;;3.59;48.71
70343;BME280;57767;42.068;24.752;2024-01-27T03:33:43;99277.19;;;3.66;48.35
70343;BME280;57767;42.068;24.752;2024-01-27T03:34:45;99273.75;;;3.66;48.86
70343;BME280;57767;42.068;24.752;2024-01-27T03:35:47;99263.78;;;3.61;48.48
70343;BME280;57767;42.068;24.752;2024-01-27T03:36:49;99279.13;;;3.64;48.67
70343;BME280;57767;42.068;24.752;2024-01-27T03:37:50;99274.50;;;3.58;49.03
70343;BME280;57767;42.068;24.752;2024-01-27T03:38:53;99281.38;;;3.59;48.91
70343;BME280;57767;42.068;24.752;2024-01-27T03:39:55;99270.41;;;3.55;49.31
70343;BME280;57767;42.068;24.752;2024-01-27T03:40:57;99269.25;;;3.50;49.25
70343;BME280;57767;42.068;24.752;2024-01-27T03:42:00;99266.78;;;3.48;49.02
70343;BME280;57767;42.068;24.752;2024-01-27T03:43:01;99273.13;;;3.46;49.45
70343;BME280;57767;42.068;24.752;2024-01-27T03:44:03;99270.38;;;3.47;48.98
70343;BME280;57767;42.068;24.752;2024-01-27T03:45:05;99263.31;;;3.40;49.24
70343;BME280;57767;42.068;24.752;2024-01-27T03:46:07;99259.19;;;3.37;49.23
70343;BME280;57767;42.068;24.752;2024-01-27T03:47:08;99249.22;;;3.33;49.94
70343;BME280;57767;42.068;24.752;2024-01-27T03:48:10;99246.31;;;3.36;49.90
70343;BME280;57767;42.068;24.752;2024-01-27T03:49:12;99249.59;;;3.38;49.63
70343;BME280;57767;42.068;24.752;2024-01-27T03:50:14;99247.94;;;3.37;50.35
70343;BME280;57767;42.068;24.752;2024-01-27T03:51:15;99255.09;;;3.35;50.89
70343;BME280;57767;42.068;24.752;2024-01-27T03:52:17;99245.09;;;3.30;50.38
70343;BME280;57767;42.068;24.752;2024-01-27T03:53:18;99261.59;;;3.31;50.62
70343;BME280;57767;42.068;24.752;2024-01-27T03:54:20;99255.06;;;3.27;50.90
70343;BME280;57767;42.068;24.752;2024-01-27T03:55:22;99260.72;;;3.22;51.06
70343;BME280;57767;42.068;24.752;2024-01-27T03:56:23;99248.47;;;3.22;51.72
70343;BME280;57767;42.068;24.752;2024-01-27T03:57:25;99254.22;;;3.26;51.21
70343;BME280;57767;42.068;24.752;2024-01-27T03:58:26;99247.50;;;3.23;51.43
70343;BME280;57767;42.068;24.752;2024-01-27T03:59:28;99239.09;;;3.12;52.04
70343;BME280;57767;42.068;24.752;2024-01-27T04:00:30;99232.53;;;3.08;51.91
70343;BME280;57767;42.068;24.752;2024-01-27T04:01:35;99238.13;;;3.13;52.05
70343;BME280;57767;42.068;24.752;2024-01-27T04:02:36;99235.00;;;3.09;52.09
70343;BME280;57767;42.068;24.752;2024-01-27T04:03:38;99222.19;;;2.98;51.86
70343;BME280;57767;42.068;24.752;2024-01-27T04:04:39;99238.88;;;3.05;52.02
70343;BME280;57767;42.068;24.752;2024-01-27T04:05:42;99239.50;;;2.99;51.88
70343;BME280;57767;42.068;24.752;2024-01-27T04:06:43;99229.88;;;3.00;52.31
70343;BME280;57767;42.068;24.752;2024-01-27T04:07:45;99230.84;;;2.99;52.05
70343;BME280;57767;42.068;24.752;2024-01-27T04:08:47;99224.38;;;3.03;51.87
70343;BME280;57767;42.068;24.752;2024-01-27T04:09:48;99233.03;;;3.03;52.15
70343;BME280;57767;42.068;24.752;2024-01-27T04:10:50;99224.19;;;3.04;52.45
70343;BME280;57767;42.068;24.752;2024-01-27T04:11:52;99212.22;;;2.94;52.20
70343;BME280;57767;42.068;24.752;2024-01-27T04:12:53;99235.16;;;3.08;52.11
70343;BME280;57767;42.068;24.752;2024-01-27T04:13:55;99232.03;;;3.04;52.01
70343;BME280;57767;42.068;24.752;2024-01-27T04:14:58;99198.97;;;2.87;52.20
70343;BME280;57767;42.068;24.752;2024-01-27T04:16:01;99220.41;;;2.99;52.32
70343;BME280;57767;42.068;24.752;2024-01-27T04:17:03;99231.56;;;3.09;52.42
70343;BME280;57767;42.068;24.752;2024-01-27T04:18:05;99228.16;;;3.08;52.47
70343;BME280;57767;42.068;24.752;2024-01-27T04:19:09;99228.81;;;3.10;52.49
70343;BME280;57767;42.068;24.752;2024-01-27T04:20:11;99225.84;;;3.05;52.68
70343;BME280;57767;42.068;24.752;2024-01-27T04:21:13;99227.84;;;3.11;52.75
70343;BME280;57767;42.068;24.752;2024-01-27T04:22:14;99231.00;;;3.15;52.75
70343;BME280;57767;42.068;24.752;2024-01-27T04:23:17;99233.44;;;3.16;52.63
70343;BME280;57767;42.068;24.752;2024-01-27T04:24:18;99230.50;;;3.19;52.66
70343;BME280;57767;42.068;24.752;2024-01-27T04:25:20;99230.66;;;3.18;52.49
70343;BME280;57767;42.068;24.752;2024-01-27T04:26:22;99211.53;;;3.09;52.73
70343;BME280;57767;42.068;24.752;2024-01-27T04:27:23;99219.72;;;3.14;53.55
70343;BME280;57767;42.068;24.752;2024-01-27T04:28:25;99232.81;;;3.22;52.80
70343;BME280;57767;42.068;24.752;2024-01-27T04:29:26;99218.59;;;3.17;53.13
70343;BME280;57767;42.068;24.752;2024-01-27T04:30:28;99224.03;;;3.23;53.06
70343;BME280;57767;42.068;24.752;2024-01-27T04:31:30;99233.06;;;3.29;53.11
70343;BME280;57767;42.068;24.752;2024-01-27T04:32:32;99237.28;;;3.30;53.47
70343;BME280;57767;42.068;24.752;2024-01-27T04:33:34;99218.19;;;3.30;53.60
70343;BME280;57767;42.068;24.752;2024-01-27T04:34:36;99223.94;;;3.33;53.18
70343;BME280;57767;42.068;24.752;2024-01-27T04:35:38;99216.25;;;3.32;52.83
70343;BME280;57767;42.068;24.752;2024-01-27T04:36:40;99208.06;;;3.27;53.00
70343;BME280;57767;42.068;24.752;2024-01-27T04:37:42;99233.06;;;3.29;53.17
70343;BME280;57767;42.068;24.752;2024-01-27T04:38:45;99230.94;;;3.33;53.42
70343;BME280;57767;42.068;24.752;2024-01-27T04:39:47;99231.47;;;3.36;52.75
70343;BME280;57767;42.068;24.752;2024-01-27T04:40:50;99226.38;;;3.35;52.85
70343;BME280;57767;42.068;24.752;2024-01-27T04:41:52;99228.31;;;3.33;53.26
70343;BME280;57767;42.068;24.752;2024-01-27T04:42:53;99228.31;;;3.33;53.21
70343;BME280;57767;42.068;24.752;2024-01-27T04:43:55;99232.13;;;3.38;52.46
70343;BME280;57767;42.068;24.752;2024-01-27T04:44:57;99217.88;;;3.33;52.62
70343;BME280;57767;42.068;24.752;2024-01-27T04:45:59;99233.06;;;3.29;52.74
70343;BME280;57767;42.068;24.752;2024-01-27T04:47:01;99222.25;;;3.24;53.26
70343;BME280;57767;42.068;24.752;2024-01-27T04:48:02;99228.13;;;3.26;53.01
70343;BME280;57767;42.068;24.752;2024-01-27T04:49:04;99226.63;;;3.23;53.35
70343;BME280;57767;42.068;24.752;2024-01-27T04:50:06;99217.41;;;3.11;53.43
70343;BME280;57767;42.068;24.752;2024-01-27T04:51:08;99229.41;;;3.22;53.51
70343;BME280;57767;42.068;24.752;2024-01-27T04:52:10;99210.13;;;3.15;52.97
70343;BME280;57767;42.068;24.752;2024-01-27T04:53:12;99230.88;;;3.24;53.21
70343;BME280;57767;42.068;24.752;2024-01-27T04:54:13;99237.28;;;3.30;53.01
70343;BME280;57767;42.068;24.752;2024-01-27T04:55:15;99231.75;;;3.33;52.87
70343;BME280;57767;42.068;24.752;2024-01-27T04:56:17;99218.19;;;3.30;52.61
70343;BME280;57767;42.068;24.752;2024-01-27T04:57:19;99216.56;;;3.29;53.01
70343;BME280;57767;42.068;24.752;2024-01-27T04:58:20;99222.28;;;3.32;53.36
70343;BME280;57767;42.068;24.752;2024-01-27T04:59:22;99203.53;;;3.29;52.87
70343;BME280;57767;42.068;24.752;2024-01-27T05:00:25;99211.94;;;3.40;52.85
70343;BME280;57767;42.068;24.752;2024-01-27T05:01:28;99212.22;;;3.37;52.73
70343;BME280;57767;42.068;24.752;2024-01-27T05:02:30;99215.94;;;3.35;52.52
70343;BME280;57767;42.068;24.752;2024-01-27T05:03:31;99224.16;;;3.40;52.93
70343;BME280;57767;42.068;24.752;2024-01-27T05:04:33;99214.59;;;3.31;52.66
70343;BME280;57767;42.068;24.752;2024-01-27T05:05:35;99216.56;;;3.29;52.66
70343;BME280;57767;42.068;24.752;2024-01-27T05:06:37;99217.88;;;3.33;52.54
70343;BME280;57767;42.068;24.752;2024-01-27T05:07:40;99221.69;;;3.38;53.21
70343;BME280;57767;42.068;24.752;2024-01-27T05:08:42;99220.56;;;3.41;52.73
70343;BME280;57767;42.068;24.752;2024-01-27T05:09:43;99206.03;;;3.38;52.21
70343;BME280;57767;42.068;24.752;2024-01-27T05:10:45;99214.72;;;3.47;52.81
70343;BME280;57767;42.068;24.752;2024-01-27T05:11:46;99214.72;;;3.47;52.03
70343;BME280;57767;42.068;24.752;2024-01-27T05:12:49;99210.84;;;3.51;52.17
70343;BME280;57767;42.068;24.752;2024-01-27T05:13:51;99189.56;;;3.38;51.97
70343;BME280;57767;42.068;24.752;2024-01-27T05:14:52;99204.59;;;3.44;52.03
70343;BME280;57767;42.068;24.752;2024-01-27T05:15:54;99204.94;;;3.49;51.97
70343;BME280;57767;42.068;24.752;2024-01-27T05:16:55;99206.59;;;3.50;52.03
70343;BME280;57767;42.068;24.752;2024-01-27T05:17:57;99209.25;;;3.58;50.87
70343;BME280;57767;42.068;24.752;2024-01-27T05:18:59;99207.16;;;3.62;51.31
70343;BME280;57767;42.068;24.752;2024-01-27T05:20:00;99203.91;;;3.68;50.61
70343;BME280;57767;42.068;24.752;2024-01-27T05:21:05;99218.13;;;3.73;50.27
70343;BME280;57767;42.068;24.752;2024-01-27T05:22:07;99210.47;;;3.72;50.33
70343;BME280;57767;42.068;24.752;2024-01-27T05:23:08;99204.56;;;3.70;50.48
70343;BME280;57767;42.068;24.752;2024-01-27T05:24:10;99210.81;;;3.77;51.05
70343;BME280;57767;42.068;24.752;2024-01-27T05:25:12;99210.97;;;3.75;50.48
70343;BME280;57767;42.068;24.752;2024-01-27T05:26:13;99214.09;;;3.79;49.99
70343;BME280;57767;42.068;24.752;2024-01-27T05:27:15;99201.50;;;3.74;49.98